Anjeliersgracht — PCGQ — position and weather

sailwx.info

Track history (hours):
 
Tides and Currents Weather Stations Pressure Air Temp Water Temp Dewpoint Dewpoint Depression Visibility Wind Speed Wind Dir Waves Ship Positions

Anjeliersgracht

Last reported at 2014-Sep-23 05:34 UTC. Time now 2014-Sep-23 06:25 UTC.
Position N 54°35' W 001°14'.

Length 130 m; beam 19 m; draft 9 m.

Type: Cargo ship. MMSI: 244716000.

Date/timePositionNaut miles runAvg speedWind from/ knotsBaromVisibWave heightAir tempDewpointWater temp
2014-Sep-23 05:34N 54°35' W 001°14'0 0.0
2014-Sep-22 17:30N 54°35' W 001°14'0 0.0
2014-Sep-22 16:12N 54°35' W 001°14'0 0.0
2014-Sep-22 15:30N 54°35' W 001°14'0 0.0
2014-Sep-22 14:30N 54°35' W 001°14'0 0.0
2014-Sep-22 13:30N 54°35' W 001°14'0 0.0
2014-Sep-22 12:33N 54°35' W 001°14'0 0.0
2014-Sep-22 11:30N 54°35' W 001°14'0 0.0
2014-Sep-22 10:30N 54°35' W 001°14'0 0.0
2014-Sep-22 09:33N 54°35' W 001°14'0 0.0
2014-Sep-22 08:33N 54°35' W 001°14'0 0.0
2014-Sep-22 07:15N 54°35' W 001°14'0 0.0
2014-Sep-22 06:33N 54°35' W 001°14'0 0.0
2014-Sep-20 12:23N 54°35' W 001°14'0 0.0
2014-Sep-20 11:25N 54°35' W 001°14'0 0.0
2014-Sep-20 10:28N 54°35' W 001°14'0 0.0
2014-Sep-20 09:28N 54°35' W 001°14'0 0.0
2014-Sep-20 08:28N 54°35' W 001°14'0 0.0
2014-Sep-20 07:31N 54°35' W 001°14'0 0.0
2014-Sep-20 06:31N 54°35' W 001°14'0 0.0
2014-Sep-20 05:25N 54°35' W 001°14'0 0.0
2014-Sep-19 17:22N 54°35' W 001°14'0 0.0
2014-Sep-19 16:22N 54°35' W 001°14'0 0.0
2014-Sep-19 15:22N 54°35' W 001°14'0 0.0
2014-Sep-19 14:19N 54°35' W 001°14'0 0.0
2014-Sep-19 13:25N 54°35' W 001°14'0 0.0
2014-Sep-19 12:25N 54°35' W 001°14'0 0.0
2014-Sep-19 11:22N 54°35' W 001°14'0 0.0
2014-Sep-19 10:25N 54°35' W 001°14'0 0.0
2014-Sep-19 09:25N 54°35' W 001°14'0 0.0
2014-Sep-19 08:25N 54°35' W 001°14'0 0.0
2014-Sep-19 07:25N 54°35' W 001°14'0 0.0
2014-Sep-19 06:28N 54°35' W 001°14'4 0.4
2014-Sep-18 19:22N 54°38' W 001°09'4 5.0
2014-Sep-18 18:33N 54°41' W 001°04'0 0.0
2014-Sep-18 17:31N 54°41' W 001°04'0 0.0
2014-Sep-18 16:30N 54°41' W 001°04'2 2.1
2014-Sep-18 15:31N 54°41' W 001°01'1413.2
2014-Sep-18 14:29N 54°35' W 000°40'1212.5
2014-Sep-18 13:33N 54°27' W 000°24'1212.5
2014-Sep-18 12:33N 54°18' W 000°09'1212.3
2014-Sep-18 11:33N 54°09' E 000°04'1312.6
2014-Sep-18 10:33N 53°59' E 000°18'1312.9
2014-Sep-18 09:33N 53°50' E 000°34'1313.2
2014-Sep-18 08:33N 53°40' E 000°49'1413.9
2014-Sep-18 07:33N 53°29' E 001°02'1414.0
2014-Sep-18 06:33N 53°17' E 001°13'1313.4
2014-Sep-18 05:33N 53°05' E 001°25'1212.4
2014-Sep-18 04:33N 52°55' E 001°37'1211.8
2014-Sep-18 03:33N 52°48' E 001°53'1111.2
2014-Sep-18 02:33N 52°39' E 002°04'1212.0
2014-Sep-18 01:33N 52°28' E 002°11'1312.7
2014-Sep-18 00:33N 52°16' E 002°19'1313.3
2014-Sep-17 23:33N 52°04' E 002°27'1413.6
2014-Sep-17 22:33N 51°51' E 002°36'1212.2
2014-Sep-17 21:32N 51°40' E 002°29'1313.6
2014-Sep-17 20:33N 51°29' E 002°16'8 8.2
2014-Sep-17 19:33N 51°21' E 002°21'8 8.4
2014-Sep-17 18:33N 51°20' E 002°34'0 0.3
2014-Sep-17 17:33N 51°19' E 002°34'0 0.0
2014-Sep-17 16:33N 51°19' E 002°34'0 0.0
2014-Sep-17 15:33N 51°19' E 002°34'0 0.0
2014-Sep-17 14:30N 51°19' E 002°34'0 0.0
2014-Sep-17 13:33N 51°19' E 002°34'0 0.0
2014-Sep-17 12:18N 51°19' E 002°34'0 0.0
2014-Sep-17 11:24N 51°19' E 002°34'0 0.0
2014-Sep-17 10:30N 51°19' E 002°34'0 0.0
2014-Sep-17 09:30N 51°19' E 002°34'0 0.1
2014-Sep-17 08:27N 51°20' E 002°34'0 0.0
2014-Sep-17 07:33N 51°20' E 002°34'0 0.0
2014-Sep-17 06:33N 51°20' E 002°34'0 0.1
2014-Sep-17 05:30N 51°19' E 002°34'0 0.1
2014-Sep-17 04:27N 51°19' E 002°34'0 0.0
2014-Sep-17 03:21N 51°19' E 002°34'0 0.0
2014-Sep-17 02:12N 51°19' E 002°34'0 0.0
2014-Sep-17 00:27N 51°19' E 002°34'0 0.0
2014-Sep-16 23:33N 51°19' E 002°34'0 0.0
2014-Sep-16 21:30N 51°19' E 002°34'0 0.1
2014-Sep-16 20:21N 51°20' E 002°34'0 0.0
2014-Sep-16 19:30N 51°20' E 002°34'0 0.0
2014-Sep-16 18:30N 51°20' E 002°34'0 0.0
2014-Sep-16 17:30N 51°20' E 002°34'0 0.0
2014-Sep-16 16:33N 51°20' E 002°34'0 0.1
2014-Sep-16 15:33N 51°19' E 002°34'0 0.1
2014-Sep-16 14:33N 51°19' E 002°34'0 0.0
2014-Sep-16 13:33N 51°19' E 002°34'0 0.0
2014-Sep-16 12:33N 51°20' E 002°34'0 0.0
2014-Sep-16 11:33N 51°20' E 002°34'0 0.0
2014-Sep-16 10:29N 51°20' E 002°34'0 0.0
2014-Sep-16 09:32N 51°20' E 002°34'0 0.1
2014-Sep-16 08:32N 51°20' E 002°34'0 0.1
2014-Sep-16 07:23N 51°20' E 002°34'0 0.0
2014-Sep-16 06:23N 51°20' E 002°34'0 0.0
2014-Sep-16 05:11N 51°20' E 002°34'0 0.0
2014-Sep-16 04:32N 51°20' E 002°34'0 0.1
2014-Sep-16 03:29N 51°19' E 002°34'0 0.1
2014-Sep-16 02:32N 51°19' E 002°34'0 0.0
2014-Sep-16 01:32N 51°19' E 002°34'0 0.0
2014-Sep-16 00:32N 51°19' E 002°34'0 0.0
2014-Sep-15 23:29N 51°20' E 002°34'0 0.0
2014-Sep-15 22:29N 51°19' E 002°34'0 0.0
2014-Sep-15 21:29N 51°20' E 002°34'0 0.0
2014-Sep-15 20:32N 51°20' E 002°34'0 0.1
2014-Sep-15 19:17N 51°20' E 002°34'0 0.0
2014-Sep-15 18:32N 51°20' E 002°34'0 0.0
2014-Sep-15 17:29N 51°20' E 002°34'0 0.0
2014-Sep-15 16:32N 51°20' E 002°34'0 0.1
2014-Sep-15 15:20N 51°19' E 002°34'0 0.0
2014-Sep-15 14:08N 51°19' E 002°34'0 0.0
2014-Sep-15 12:29N 51°19' E 002°34'0 0.0
2014-Sep-15 11:32N 51°19' E 002°34'0 0.0
2014-Sep-15 10:32N 51°19' E 002°34'0 0.0
2014-Sep-15 09:32N 51°19' E 002°34'0 0.0
2014-Sep-15 08:32N 51°20' E 002°34'0 0.1
2014-Sep-15 07:08N 51°20' E 002°34'0 0.1
2014-Sep-15 06:29N 51°20' E 002°34'0 0.0
2014-Sep-15 05:32N 51°20' E 002°34'0 0.0
2014-Sep-15 04:32N 51°20' E 002°34'0 0.0
2014-Sep-15 03:26N 51°20' E 002°34'0 0.2
2014-Sep-15 02:29N 51°19' E 002°34'0 0.0
2014-Sep-15 01:20N 51°19' E 002°34'0 0.0
2014-Sep-15 00:29N 51°19' E 002°34'0 0.0
2014-Sep-14 23:31N 51°19' E 002°34'0 0.0
2014-Sep-14 22:26N 51°19' E 002°34'0 0.0
2014-Sep-14 21:19N 51°19' E 002°34'0 0.0
2014-Sep-14 19:13N 51°19' E 002°34'0 0.1
2014-Sep-14 18:31N 51°19' E 002°34'0 0.1
2014-Sep-14 17:31N 51°20' E 002°34'0 0.0
2014-Sep-14 16:31N 51°20' E 002°34'0 0.1
2014-Sep-14 15:25N 51°19' E 002°34'0 0.1
2014-Sep-14 14:25N 51°19' E 002°34'0 0.0
2014-Sep-14 13:31N 51°19' E 002°34'0 0.0
2014-Sep-14 12:28N 51°19' E 002°34'0 0.0
2014-Sep-14 11:31N 51°19' E 002°34'0 0.0
2014-Sep-14 10:31N 51°19' E 002°34'0 0.0
2014-Sep-14 09:31N 51°19' E 002°34'0 0.0
2014-Sep-14 08:31N 51°19' E 002°34'0 0.0
2014-Sep-14 07:31N 51°19' E 002°34'0 0.1
2014-Sep-14 06:31N 51°20' E 002°34'0 0.0
2014-Sep-14 05:31N 51°20' E 002°34'0 0.1
2014-Sep-14 04:31N 51°20' E 002°34'0 0.0
2014-Sep-14 03:31N 51°20' E 002°34'0 0.1
2014-Sep-14 02:28N 51°19' E 002°34'0 0.1
2014-Sep-14 01:31N 51°19' E 002°34'0 0.0
2014-Sep-13 21:25N 51°19' E 002°34'0 0.0
2014-Sep-13 20:31N 51°19' E 002°34'0 0.0
2014-Sep-13 19:31N 51°19' E 002°34'0 0.0
2014-Sep-13 18:34N 51°19' E 002°34'0 0.1
2014-Sep-13 17:30N 51°20' E 002°34'0 0.1
2014-Sep-13 16:33N 51°20' E 002°34'0 0.0
2014-Sep-13 15:30N 51°20' E 002°34'0 0.2
2014-Sep-13 14:31N 51°19' E 002°34'0 0.1
2014-Sep-13 13:24N 51°19' E 002°34'0 0.0
2014-Sep-13 12:30N 51°19' E 002°34'0 0.0
2014-Sep-13 11:33N 51°19' E 002°34'0 0.0
2014-Sep-13 10:06N 51°19' E 002°34'0 0.1
2014-Sep-13 09:30N 51°19' E 002°34'0 0.0
2014-Sep-13 08:30N 51°19' E 002°34'0 0.0
2014-Sep-13 07:27N 51°19' E 002°34'0 0.0
2014-Sep-13 06:30N 51°19' E 002°34'  
Track history (hours):
 
Tides and Currents Weather Stations Pressure Air Temp Water Temp Dewpoint Dewpoint Depression Visibility Wind Speed Wind Dir Waves Ship Positions

Anjeliersgracht

Last reported at 2014-Sep-23 05:34 UTC. Time now 2014-Sep-23 06:25 UTC.
Position N 54°35' W 001°14'.

Length 130 m; beam 19 m; draft 9 m.

Type: Cargo ship. MMSI: 244716000.

Date/timePositionNaut miles runAvg speedWind from/ knotsBaromVisibWave heightAir tempDewpointWater temp
2014-Sep-23 05:34N 54°35' W 001°14'0 0.0
2014-Sep-22 17:30N 54°35' W 001°14'0 0.0
2014-Sep-22 16:12N 54°35' W 001°14'0 0.0
2014-Sep-22 15:30N 54°35' W 001°14'0 0.0
2014-Sep-22 14:30N 54°35' W 001°14'0 0.0
2014-Sep-22 13:30N 54°35' W 001°14'0 0.0
2014-Sep-22 12:33N 54°35' W 001°14'0 0.0
2014-Sep-22 11:30N 54°35' W 001°14'0 0.0
2014-Sep-22 10:30N 54°35' W 001°14'0 0.0
2014-Sep-22 09:33N 54°35' W 001°14'0 0.0
2014-Sep-22 08:33N 54°35' W 001°14'0 0.0
2014-Sep-22 07:15N 54°35' W 001°14'0 0.0
2014-Sep-22 06:33N 54°35' W 001°14'0 0.0
2014-Sep-20 12:23N 54°35' W 001°14'0 0.0
2014-Sep-20 11:25N 54°35' W 001°14'0 0.0
2014-Sep-20 10:28N 54°35' W 001°14'0 0.0
2014-Sep-20 09:28N 54°35' W 001°14'0 0.0
2014-Sep-20 08:28N 54°35' W 001°14'0 0.0
2014-Sep-20 07:31N 54°35' W 001°14'0 0.0
2014-Sep-20 06:31N 54°35' W 001°14'0 0.0
2014-Sep-20 05:25N 54°35' W 001°14'0 0.0
2014-Sep-19 17:22N 54°35' W 001°14'0 0.0
2014-Sep-19 16:22N 54°35' W 001°14'0 0.0
2014-Sep-19 15:22N 54°35' W 001°14'0 0.0
2014-Sep-19 14:19N 54°35' W 001°14'0 0.0
2014-Sep-19 13:25N 54°35' W 001°14'0 0.0
2014-Sep-19 12:25N 54°35' W 001°14'0 0.0
2014-Sep-19 11:22N 54°35' W 001°14'0 0.0
2014-Sep-19 10:25N 54°35' W 001°14'0 0.0
2014-Sep-19 09:25N 54°35' W 001°14'0 0.0
2014-Sep-19 08:25N 54°35' W 001°14'0 0.0
2014-Sep-19 07:25N 54°35' W 001°14'0 0.0
2014-Sep-19 06:28N 54°35' W 001°14'4 0.4
2014-Sep-18 19:22N 54°38' W 001°09'4 5.0
2014-Sep-18 18:33N 54°41' W 001°04'0 0.0
2014-Sep-18 17:31N 54°41' W 001°04'0 0.0
2014-Sep-18 16:30N 54°41' W 001°04'2 2.1
2014-Sep-18 15:31N 54°41' W 001°01'1413.2
2014-Sep-18 14:29N 54°35' W 000°40'1212.5
2014-Sep-18 13:33N 54°27' W 000°24'1212.5
2014-Sep-18 12:33N 54°18' W 000°09'1212.3
2014-Sep-18 11:33N 54°09' E 000°04'1312.6
2014-Sep-18 10:33N 53°59' E 000°18'1312.9
2014-Sep-18 09:33N 53°50' E 000°34'1313.2
2014-Sep-18 08:33N 53°40' E 000°49'1413.9
2014-Sep-18 07:33N 53°29' E 001°02'1414.0
2014-Sep-18 06:33N 53°17' E 001°13'1313.4
2014-Sep-18 05:33N 53°05' E 001°25'1212.4
2014-Sep-18 04:33N 52°55' E 001°37'1211.8
2014-Sep-18 03:33N 52°48' E 001°53'1111.2
2014-Sep-18 02:33N 52°39' E 002°04'1212.0
2014-Sep-18 01:33N 52°28' E 002°11'1312.7
2014-Sep-18 00:33N 52°16' E 002°19'1313.3
2014-Sep-17 23:33N 52°04' E 002°27'1413.6
2014-Sep-17 22:33N 51°51' E 002°36'1212.2
2014-Sep-17 21:32N 51°40' E 002°29'1313.6
2014-Sep-17 20:33N 51°29' E 002°16'8 8.2
2014-Sep-17 19:33N 51°21' E 002°21'8 8.4
2014-Sep-17 18:33N 51°20' E 002°34'0 0.3
2014-Sep-17 17:33N 51°19' E 002°34'0 0.0
2014-Sep-17 16:33N 51°19' E 002°34'0 0.0
2014-Sep-17 15:33N 51°19' E 002°34'0 0.0
2014-Sep-17 14:30N 51°19' E 002°34'0 0.0
2014-Sep-17 13:33N 51°19' E 002°34'0 0.0
2014-Sep-17 12:18N 51°19' E 002°34'0 0.0
2014-Sep-17 11:24N 51°19' E 002°34'0 0.0
2014-Sep-17 10:30N 51°19' E 002°34'0 0.0
2014-Sep-17 09:30N 51°19' E 002°34'0 0.1
2014-Sep-17 08:27N 51°20' E 002°34'0 0.0
2014-Sep-17 07:33N 51°20' E 002°34'0 0.0
2014-Sep-17 06:33N 51°20' E 002°34'0 0.1
2014-Sep-17 05:30N 51°19' E 002°34'0 0.1
2014-Sep-17 04:27N 51°19' E 002°34'0 0.0
2014-Sep-17 03:21N 51°19' E 002°34'0 0.0
2014-Sep-17 02:12N 51°19' E 002°34'0 0.0
2014-Sep-17 00:27N 51°19' E 002°34'0 0.0
2014-Sep-16 23:33N 51°19' E 002°34'0 0.0
2014-Sep-16 21:30N 51°19' E 002°34'0 0.1
2014-Sep-16 20:21N 51°20' E 002°34'0 0.0
2014-Sep-16 19:30N 51°20' E 002°34'0 0.0
2014-Sep-16 18:30N 51°20' E 002°34'0 0.0
2014-Sep-16 17:30N 51°20' E 002°34'0 0.0
2014-Sep-16 16:33N 51°20' E 002°34'0 0.1
2014-Sep-16 15:33N 51°19' E 002°34'0 0.1
2014-Sep-16 14:33N 51°19' E 002°34'0 0.0
2014-Sep-16 13:33N 51°19' E 002°34'0 0.0
2014-Sep-16 12:33N 51°20' E 002°34'0 0.0
2014-Sep-16 11:33N 51°20' E 002°34'0 0.0
2014-Sep-16 10:29N 51°20' E 002°34'0 0.0
2014-Sep-16 09:32N 51°20' E 002°34'0 0.1
2014-Sep-16 08:32N 51°20' E 002°34'0 0.1
2014-Sep-16 07:23N 51°20' E 002°34'0 0.0
2014-Sep-16 06:23N 51°20' E 002°34'0 0.0
2014-Sep-16 05:11N 51°20' E 002°34'0 0.0
2014-Sep-16 04:32N 51°20' E 002°34'0 0.1
2014-Sep-16 03:29N 51°19' E 002°34'0 0.1
2014-Sep-16 02:32N 51°19' E 002°34'0 0.0
2014-Sep-16 01:32N 51°19' E 002°34'0 0.0
2014-Sep-16 00:32N 51°19' E 002°34'0 0.0
2014-Sep-15 23:29N 51°20' E 002°34'0 0.0
2014-Sep-15 22:29N 51°19' E 002°34'0 0.0
2014-Sep-15 21:29N 51°20' E 002°34'0 0.0
2014-Sep-15 20:32N 51°20' E 002°34'0 0.1
2014-Sep-15 19:17N 51°20' E 002°34'0 0.0
2014-Sep-15 18:32N 51°20' E 002°34'0 0.0
2014-Sep-15 17:29N 51°20' E 002°34'0 0.0
2014-Sep-15 16:32N 51°20' E 002°34'0 0.1
2014-Sep-15 15:20N 51°19' E 002°34'0 0.0
2014-Sep-15 14:08N 51°19' E 002°34'0 0.0
2014-Sep-15 12:29N 51°19' E 002°34'0 0.0
2014-Sep-15 11:32N 51°19' E 002°34'0 0.0
2014-Sep-15 10:32N 51°19' E 002°34'0 0.0
2014-Sep-15 09:32N 51°19' E 002°34'0 0.0
2014-Sep-15 08:32N 51°20' E 002°34'0 0.1
2014-Sep-15 07:08N 51°20' E 002°34'0 0.1
2014-Sep-15 06:29N 51°20' E 002°34'0 0.0
2014-Sep-15 05:32N 51°20' E 002°34'0 0.0
2014-Sep-15 04:32N 51°20' E 002°34'0 0.0
2014-Sep-15 03:26N 51°20' E 002°34'0 0.2
2014-Sep-15 02:29N 51°19' E 002°34'0 0.0
2014-Sep-15 01:20N 51°19' E 002°34'0 0.0
2014-Sep-15 00:29N 51°19' E 002°34'0 0.0
2014-Sep-14 23:31N 51°19' E 002°34'0 0.0
2014-Sep-14 22:26N 51°19' E 002°34'0 0.0
2014-Sep-14 21:19N 51°19' E 002°34'0 0.0
2014-Sep-14 19:13N 51°19' E 002°34'0 0.1
2014-Sep-14 18:31N 51°19' E 002°34'0 0.1
2014-Sep-14 17:31N 51°20' E 002°34'0 0.0
2014-Sep-14 16:31N 51°20' E 002°34'0 0.1
2014-Sep-14 15:25N 51°19' E 002°34'0 0.1
2014-Sep-14 14:25N 51°19' E 002°34'0 0.0
2014-Sep-14 13:31N 51°19' E 002°34'0 0.0
2014-Sep-14 12:28N 51°19' E 002°34'0 0.0
2014-Sep-14 11:31N 51°19' E 002°34'0 0.0
2014-Sep-14 10:31N 51°19' E 002°34'0 0.0
2014-Sep-14 09:31N 51°19' E 002°34'0 0.0
2014-Sep-14 08:31N 51°19' E 002°34'0 0.0
2014-Sep-14 07:31N 51°19' E 002°34'0 0.1
2014-Sep-14 06:31N 51°20' E 002°34'0 0.0
2014-Sep-14 05:31N 51°20' E 002°34'0 0.1
2014-Sep-14 04:31N 51°20' E 002°34'0 0.0
2014-Sep-14 03:31N 51°20' E 002°34'0 0.1
2014-Sep-14 02:28N 51°19' E 002°34'0 0.1
2014-Sep-14 01:31N 51°19' E 002°34'0 0.0
2014-Sep-13 21:25N 51°19' E 002°34'0 0.0
2014-Sep-13 20:31N 51°19' E 002°34'0 0.0
2014-Sep-13 19:31N 51°19' E 002°34'0 0.0
2014-Sep-13 18:34N 51°19' E 002°34'0 0.1
2014-Sep-13 17:30N 51°20' E 002°34'0 0.1
2014-Sep-13 16:33N 51°20' E 002°34'0 0.0
2014-Sep-13 15:30N 51°20' E 002°34'0 0.2
2014-Sep-13 14:31N 51°19' E 002°34'0 0.1
2014-Sep-13 13:24N 51°19' E 002°34'0 0.0
2014-Sep-13 12:30N 51°19' E 002°34'0 0.0
2014-Sep-13 11:33N 51°19' E 002°34'0 0.0
2014-Sep-13 10:06N 51°19' E 002°34'0 0.1
2014-Sep-13 09:30N 51°19' E 002°34'0 0.0
2014-Sep-13 08:30N 51°19' E 002°34'0 0.0
2014-Sep-13 07:27N 51°19' E 002°34'0 0.0
2014-Sep-13 06:30N 51°19' E 002°34'  

Dump ship's entire track history